createdAt,value
2023-02-28T12:38:34.488Z,49696.00
2023-02-28T12:39:44.886Z,48544.00
2023-02-28T12:40:34.434Z,47840.00
2023-02-28T12:41:34.423Z,45312.00
2023-02-28T12:42:34.385Z,43712.00
2023-02-28T12:43:34.351Z,43104.00
2023-02-28T12:44:34.316Z,44000.00
2023-02-28T12:45:34.361Z,45184.00
2023-02-28T12:46:34.376Z,44768.00
2023-02-28T12:47:34.274Z,43104.00
2023-02-28T12:48:34.246Z,41920.00
2023-02-28T12:49:34.211Z,41920.00
2023-02-28T12:50:34.196Z,43936.00
2023-02-28T12:51:34.165Z,44864.00
2023-02-28T12:52:34.145Z,43072.00
2023-02-28T12:53:34.121Z,38592.00
2023-02-28T12:54:34.089Z,38848.00
2023-02-28T12:55:34.069Z,39456.00
2023-02-28T12:56:34.067Z,40736.00
2023-02-28T12:57:34.031Z,42656.00
2023-02-28T12:58:34.023Z,42016.00
2023-02-28T12:59:33.978Z,44800.00
2023-02-28T13:00:33.960Z,42688.00
2023-02-28T13:01:34.301Z,40352.00
2023-02-28T13:02:34.025Z,39392.00
2023-02-28T13:03:33.914Z,39904.00
2023-02-28T13:04:33.881Z,40480.00
2023-02-28T13:05:33.869Z,41344.00
2023-02-28T13:06:33.855Z,43488.00
2023-02-28T13:07:33.858Z,43520.00
2023-02-28T13:08:33.811Z,43488.00
2023-02-28T13:09:33.763Z,45152.00
2023-02-28T13:10:33.748Z,46208.00
2023-02-28T13:11:33.961Z,47680.00
2023-02-28T13:12:33.727Z,45120.00
2023-02-28T13:13:33.693Z,44704.00
2023-02-28T13:14:33.704Z,43680.00
2023-02-28T13:15:33.633Z,43168.00
2023-02-28T13:16:35.207Z,45952.00
2023-02-28T13:17:33.597Z,46944.00
2023-02-28T13:18:33.620Z,45952.00
2023-02-28T13:19:33.573Z,43680.00
2023-02-28T13:20:33.562Z,44512.00
2023-02-28T13:21:33.534Z,44416.00
2023-02-28T13:22:33.501Z,43392.00
2023-02-28T13:23:33.514Z,44512.00
2023-02-28T13:24:33.462Z,44352.00
2023-02-28T13:25:33.435Z,44480.00
2023-02-28T13:26:33.498Z,44960.00
2023-02-28T13:27:33.437Z,43648.00
2023-02-28T13:28:33.402Z,42368.00
2023-02-28T13:29:33.376Z,42848.00
2023-02-28T13:30:33.393Z,42816.00
2023-02-28T13:31:33.320Z,41920.00
2023-02-28T13:32:33.324Z,42272.00
2023-02-28T13:33:33.297Z,42944.00
2023-02-28T13:34:33.301Z,41792.00
2023-02-28T13:35:33.282Z,41088.00
2023-02-28T13:36:33.250Z,41216.00
2023-02-28T13:37:33.228Z,41760.00
2023-02-28T13:38:33.196Z,42848.00
2023-02-28T13:39:35.214Z,43104.00
2023-02-28T13:40:33.171Z,43008.00
2023-02-28T13:41:33.285Z,41152.00
2023-02-28T13:42:33.115Z,40832.00
2023-02-28T13:43:36.043Z,41088.00
2023-02-28T13:44:33.100Z,42208.00
2023-02-28T13:45:33.077Z,42720.00
2023-02-28T13:46:33.102Z,41152.00
2023-02-28T13:47:33.032Z,39552.00
2023-02-28T13:48:33.007Z,40288.00
2023-02-28T13:49:33.032Z,39680.00
2023-02-28T13:50:32.979Z,40256.00
2023-02-28T13:51:33.979Z,41152.00
2023-02-28T13:52:32.941Z,40864.00
2023-02-28T13:53:32.929Z,39776.00
2023-02-28T13:54:32.937Z,40000.00
2023-02-28T13:55:32.900Z,40096.00
2023-02-28T13:56:32.882Z,40960.00
2023-02-28T13:57:32.853Z,41344.00
2023-02-28T13:58:32.853Z,41600.00
2023-02-28T13:59:32.813Z,41248.00
2023-02-28T14:00:41.682Z,40096.00
2023-02-28T14:01:33.262Z,39296.00
2023-02-28T14:02:32.744Z,39136.00
2023-02-28T14:03:32.728Z,34144.00
2023-02-28T14:04:33.704Z,29312.00
2023-02-28T14:05:32.709Z,26912.00
2023-02-28T14:06:32.896Z,22400.00
2023-02-28T14:07:36.257Z,18688.00
2023-02-28T14:08:32.636Z,22976.00
2023-02-28T14:09:32.602Z,30112.00
2023-02-28T14:10:32.629Z,31872.00
2023-02-28T14:11:32.588Z,33184.00
2023-02-28T14:12:32.555Z,36448.00
2023-02-28T14:13:32.556Z,37920.00
2023-02-28T14:14:32.548Z,37600.00
2023-02-28T14:15:32.557Z,35808.00
2023-02-28T14:16:32.561Z,34432.00
2023-02-28T14:17:32.461Z,32864.00
2023-02-28T14:18:32.478Z,29568.00
2023-02-28T14:19:32.459Z,27072.00
2023-02-28T14:20:32.438Z,28768.00
2023-02-28T14:21:32.396Z,32064.00
2023-02-28T14:22:32.376Z,31776.00
2023-02-28T14:23:32.355Z,32512.00
2023-02-28T14:24:32.365Z,34016.00
2023-02-28T14:25:32.341Z,34176.00
2023-02-28T14:26:32.325Z,33696.00
2023-02-28T14:27:32.289Z,33600.00
2023-02-28T14:28:32.277Z,29312.00
2023-02-28T14:44:59.522Z,28832.00
2023-02-28T14:45:59.512Z,28768.00
2023-02-28T14:46:59.493Z,28160.00
2023-02-28T14:47:59.452Z,28160.00
2023-02-28T14:48:59.455Z,26912.00
2023-02-28T14:49:59.426Z,26592.00
2023-02-28T14:50:59.420Z,25120.00
2023-02-28T14:51:59.388Z,14720.00
2023-02-28T14:52:59.387Z,6284.00
2023-02-28T14:53:59.356Z,5532.00
2023-02-28T14:54:59.353Z,5448.00
2023-02-28T14:55:59.303Z,5416.00
